Time;durP1;ratioP1;P1;durP2;ratioP2;P2;SDS_P1;SDS_P2;PMS_P1;PMS_P2;Temp;Humidity;BMP_temperature;BMP_pressure;BME280_temperature;BME280_humidity;BME280_pressure;Samples;Min_cycle;Max_cycle;Signal;HPM_P1;HPM_P2
2022/06/01 00:01:45;;;;;;;28.80;6.00;;;14.40;39.20;;;;;;5027835;28;20479;-66
2022/06/01 00:04:12;;;;;;;29.33;5.63;;;14.30;39.20;;;;;;5027959;28;20892;-66
2022/06/01 00:06:39;;;;;;;26.90;5.27;;;14.30;39.20;;;;;;5028906;28;20458;-66
2022/06/01 00:09:05;;;;;;;28.33;6.00;;;14.30;39.30;;;;;;5026560;28;20483;-66
2022/06/01 00:11:33;;;;;;;29.43;5.60;;;14.30;39.30;;;;;;5028075;28;20910;-67
2022/06/01 00:14:00;;;;;;;28.63;4.83;;;14.20;39.30;;;;;;5028586;28;20486;-66
2022/06/01 00:16:28;;;;;;;27.90;5.43;;;14.20;40.20;;;;;;5028388;28;21043;-67
2022/06/01 00:18:55;;;;;;;30.00;6.00;;;14.20;39.60;;;;;;5027086;28;20483;-66
2022/06/01 00:21:22;;;;;;;28.47;5.57;;;14.20;39.60;;;;;;5027532;28;20455;-66
2022/06/01 00:23:49;;;;;;;27.87;5.50;;;14.10;39.60;;;;;;5026266;28;20478;-66
2022/06/01 00:26:16;;;;;;;27.97;5.90;;;14.10;39.80;;;;;;5027516;28;20467;-66
2022/06/01 00:28:42;;;;;;;29.27;6.10;;;14.10;40.50;;;;;;5026835;28;21019;-66
2022/06/01 00:31:11;;;;;;;31.83;6.03;;;14.10;40.30;;;;;;5026398;28;20920;-66
2022/06/01 00:33:39;;;;;;;28.53;6.00;;;14.10;40.10;;;;;;5021505;28;20960;-66
2022/06/01 00:36:07;;;;;;;28.87;5.97;;;14.10;40.30;;;;;;5026404;28;20980;-66
2022/06/01 00:38:34;;;;;;;27.83;5.50;;;14.10;40.20;;;;;;5027962;28;20998;-66
2022/06/01 00:41:01;;;;;;;27.50;5.43;;;14.10;40.40;;;;;;5027769;28;20573;-66
2022/06/01 00:43:39;;;;;;;29.03;5.60;;;14.10;40.50;;;;;;5026562;28;20557;-66
2022/06/01 00:46:06;;;;;;;28.67;5.53;;;14.00;40.60;;;;;;5028151;28;20493;-66
2022/06/01 00:48:34;;;;;;;28.43;5.80;;;14.00;40.50;;;;;;5028251;28;21187;-66
2022/06/01 00:51:03;;;;;;;27.83;5.07;;;14.00;40.60;;;;;;5027625;28;20711;-66
2022/06/01 00:53:34;;;;;;;29.00;5.60;;;14.00;40.80;;;;;;5026075;28;20462;-66
2022/06/01 00:56:05;;;;;;;28.03;5.10;;;14.00;41.10;;;;;;5027711;28;20939;-66
2022/06/01 00:58:35;;;;;;;28.73;5.70;;;14.00;41.00;;;;;;5027128;28;20491;-67
2022/06/01 01:01:02;;;;;;;28.10;5.50;;;13.90;40.90;;;;;;5027482;28;20536;-66
2022/06/01 01:03:34;;;;;;;27.90;5.13;;;13.90;41.00;;;;;;5025956;28;20459;-66
2022/06/01 01:06:12;;;;;;;28.90;5.80;;;13.90;41.20;;;;;;5027634;28;20471;-66
2022/06/01 01:08:40;;;;;;;28.10;5.03;;;13.90;41.20;;;;;;5027818;28;20482;-63
2022/06/01 01:11:07;;;;;;;28.97;5.27;;;13.90;41.30;;;;;;5027166;28;20540;-67
2022/06/01 01:13:34;;;;;;;31.77;5.83;;;13.90;41.40;;;;;;5028243;28;20462;-67
2022/06/01 01:16:01;;;;;;;27.53;5.60;;;13.90;41.80;;;;;;5026450;28;20467;-66
2022/06/01 01:18:31;;;;;;;27.10;5.10;;;13.90;41.70;;;;;;5027574;28;20486;-66
2022/06/01 01:21:11;;;;;;;30.50;6.37;;;13.90;41.90;;;;;;5027686;28;20492;-66
2022/06/01 01:23:46;;;;;;;36.73;7.20;;;13.90;41.80;;;;;;5027592;28;20526;-66
2022/06/01 01:26:15;;;;;;;30.93;6.87;;;13.90;41.70;;;;;;5024856;28;20854;-66
2022/06/01 01:28:42;;;;;;;28.80;5.93;;;13.90;41.70;;;;;;5027188;28;20510;-66
2022/06/01 01:31:12;;;;;;;27.57;5.23;;;13.90;41.60;;;;;;5026827;28;20471;-66
2022/06/01 01:33:39;;;;;;;30.97;6.23;;;13.80;41.60;;;;;;5027557;28;20466;-66
2022/06/01 01:36:08;;;;;;;28.97;5.80;;;13.90;41.60;;;;;;5027543;28;20470;-66
2022/06/01 01:38:41;;;;;;;30.40;6.50;;;13.90;42.20;;;;;;5025760;28;20506;-66
2022/06/01 01:41:11;;;;;;;30.23;6.03;;;13.90;41.50;;;;;;5027586;28;20489;-67
2022/06/01 01:43:45;;;;;;;29.17;6.27;;;13.80;41.50;;;;;;5025710;28;20463;-66
2022/06/01 01:46:12;;;;;;;29.10;6.10;;;13.80;41.50;;;;;;5027583;28;20454;-66
2022/06/01 01:48:39;;;;;;;29.10;6.33;;;13.70;41.30;;;;;;5030943;28;20991;-66
2022/06/01 01:51:06;;;;;;;28.30;5.80;;;13.70;41.40;;;;;;5030614;28;20482;-66
2022/06/01 01:53:34;;;;;;;28.20;5.57;;;13.70;41.90;;;;;;5031339;28;20466;-66
2022/06/01 01:56:13;;;;;;;28.60;5.90;;;13.70;41.90;;;;;;5029250;28;20971;-65
2022/06/01 01:58:56;;;;;;;30.97;7.30;;;13.70;42.40;;;;;;5030696;28;20999;-66
2022/06/01 02:01:30;;;;;;;29.70;5.40;;;13.70;42.40;;;;;;5030609;28;20489;-66
2022/06/01 02:04:06;;;;;;;30.47;6.00;;;13.70;42.60;;;;;;5030834;28;20994;-66
2022/06/01 02:06:39;;;;;;;29.83;6.50;;;13.70;42.60;;;;;;5029121;28;20468;-66
2022/06/01 02:09:08;;;;;;;31.50;5.77;;;13.70;42.60;;;;;;5031276;28;20485;-66
2022/06/01 02:14:29;;;;;;;28.77;5.53;;;13.70;42.60;;;;;;5030409;28;20422;-66
2022/06/01 02:17:01;;;;;;;27.77;5.43;;;13.60;42.50;;;;;;5029858;28;20472;-66
2022/06/01 02:19:32;;;;;;;28.77;5.97;;;13.60;43.20;;;;;;5030460;28;20520;-66
2022/06/01 02:22:00;;;;;;;32.23;6.30;;;13.60;42.80;;;;;;5030834;28;20538;-66
2022/06/01 02:24:27;;;;;;;28.83;6.43;;;13.60;42.70;;;;;;5030164;28;20513;-67
2022/06/01 02:26:56;;;;;;;30.57;6.07;;;13.60;42.50;;;;;;5028795;28;20463;-66
2022/06/01 02:29:36;;;;;;;29.73;6.20;;;13.60;42.30;;;;;;5030317;28;20462;-66
2022/06/01 02:32:04;;;;;;;29.10;5.60;;;13.60;42.20;;;;;;5029818;28;20478;-66
2022/06/01 02:34:32;;;;;;;29.60;5.70;;;13.60;41.90;;;;;;5028968;28;20474;-66
2022/06/01 02:37:00;;;;;;;29.50;5.87;;;13.50;41.60;;;;;;5027824;28;20474;-66
2022/06/01 02:39:30;;;;;;;30.27;6.13;;;13.50;41.40;;;;;;5030491;28;20874;-66
2022/06/01 02:45:41;;;;;;;30.47;6.70;;;13.40;42.00;;;;;;5030164;28;20499;-65
2022/06/01 02:48:09;;;;;;;31.60;5.90;;;13.40;42.50;;;;;;5029897;28;21023;-66
2022/06/01 02:50:38;;;;;;;30.77;6.50;;;13.40;41.80;;;;;;5029162;28;20478;-66
2022/06/01 02:53:06;;;;;;;30.70;7.50;;;13.40;42.00;;;;;;5029117;28;20474;-66
2022/06/01 02:55:33;;;;;;;33.07;7.10;;;13.40;42.30;;;;;;5029993;28;20466;-66
2022/06/01 02:58:01;;;;;;;32.20;7.80;;;13.40;42.90;;;;;;5029381;28;20498;-66
2022/06/01 03:00:30;;;;;;;30.60;7.00;;;13.50;42.30;;;;;;5029686;28;20494;-66
2022/06/01 03:02:59;;;;;;;32.10;7.80;;;13.50;42.60;;;;;;5027458;28;20467;-66
2022/06/01 03:05:31;;;;;;;31.23;7.40;;;13.40;42.30;;;;;;5029920;28;20463;-66
2022/06/01 03:07:58;;;;;;;32.07;7.50;;;13.40;41.90;;;;;;5029769;28;20494;-66
2022/06/01 03:10:25;;;;;;;33.27;7.73;;;13.40;42.00;;;;;;5029429;28;20494;-66
2022/06/01 03:12:52;;;;;;;32.17;7.60;;;13.40;42.10;;;;;;5027556;28;20466;-66
2022/06/01 03:15:22;;;;;;;31.87;7.40;;;13.30;42.30;;;;;;5028875;28;20486;-66
2022/06/01 03:17:48;;;;;;;32.30;7.90;;;13.30;42.30;;;;;;5029872;28;20478;-66
2022/06/01 03:20:17;;;;;;;31.93;8.00;;;13.30;42.40;;;;;;5029233;28;20459;-66
2022/06/01 03:22:46;;;;;;;33.00;8.20;;;13.30;42.60;;;;;;5027768;28;20989;-66
2022/06/01 03:25:14;;;;;;;31.00;7.30;;;13.30;42.70;;;;;;5029210;28;20455;-66
2022/06/01 03:27:42;;;;;;;30.47;7.57;;;13.20;42.80;;;;;;5029499;28;20605;-66
2022/06/01 03:30:12;;;;;;;32.10;7.73;;;13.20;43.50;;;;;;5028579;28;20459;-66
2022/06/01 03:32:38;;;;;;;33.83;7.57;;;13.30;43.80;;;;;;5027413;28;20462;-65
2022/06/01 03:35:06;;;;;;;32.60;7.53;;;13.40;43.90;;;;;;5029504;28;20455;-66
2022/06/01 03:37:33;;;;;;;31.40;7.73;;;13.30;43.30;;;;;;5029357;28;20475;-66
2022/06/01 03:40:01;;;;;;;30.30;7.27;;;13.40;43.10;;;;;;5029157;28;21159;-66
2022/06/01 03:42:30;;;;;;;31.23;7.00;;;13.30;42.80;;;;;;5028506;28;20451;-66
2022/06/01 03:47:41;;;;;;;30.17;7.13;;;13.30;42.40;;;;;;5028257;28;21042;-67
2022/06/01 03:50:09;;;;;;;32.30;8.40;;;13.40;42.70;;;;;;5029453;28;20458;-67
2022/06/01 03:52:36;;;;;;;32.60;9.13;;;13.40;42.90;;;;;;5028454;28;20851;-67
2022/06/01 03:55:08;;;;;;;33.80;7.73;;;13.40;43.00;;;;;;5026353;28;20989;-68
2022/06/01 03:57:35;;;;;;;31.57;8.20;;;13.40;43.20;;;;;;5027726;28;20522;-67
2022/06/01 04:00:01;;;;;;;34.57;9.50;;;13.40;42.30;;;;;;5028574;28;20451;-67
2022/06/01 04:02:28;;;;;;;32.10;9.37;;;13.40;42.00;;;;;;5024375;28;21055;-67
2022/06/01 04:04:55;;;;;;;33.33;9.97;;;13.40;42.10;;;;;;5022256;28;20463;-68
2022/06/01 04:07:22;;;;;;;32.03;10.00;;;13.40;42.20;;;;;;5027891;28;21008;-67
2022/06/01 04:09:48;;;;;;;37.90;11.00;;;13.50;42.60;;;;;;5025269;28;20471;-65
2022/06/01 04:12:16;;;;;;;34.37;10.67;;;13.50;42.50;;;;;;5013882;28;20562;-65
2022/06/01 04:14:43;;;;;;;33.90;11.03;;;13.60;42.70;;;;;;5022626;28;20454;-66
2022/06/01 04:17:10;;;;;;;34.57;10.40;;;13.70;42.60;;;;;;5013990;28;20475;-66
2022/06/01 04:19:37;;;;;;;34.50;10.03;;;13.80;42.50;;;;;;5009292;28;20463;-66
2022/06/01 04:22:04;;;;;;;33.30;11.00;;;13.90;42.70;;;;;;5026358;28;20484;-66
2022/06/01 04:24:33;;;;;;;37.50;11.70;;;14.00;42.50;;;;;;5025475;28;20455;-66
2022/06/01 04:27:00;;;;;;;32.90;10.27;;;14.20;42.60;;;;;;5027572;28;20461;-66
2022/06/01 04:29:28;;;;;;;34.20;9.57;;;14.70;43.70;;;;;;5028274;28;20492;-65
2022/06/01 04:32:02;;;;;;;32.47;8.83;;;15.40;41.90;;;;;;5027698;28;20479;-65
2022/06/01 04:34:29;;;;;;;34.00;9.13;;;15.70;39.60;;;;;;5027304;28;21108;-65
2022/06/01 04:36:56;;;;;;;34.23;9.83;;;15.60;39.30;;;;;;5026591;28;20470;-65
2022/06/01 04:39:23;;;;;;;34.07;10.20;;;15.50;39.40;;;;;;5027292;28;20478;-65
2022/06/01 04:41:50;;;;;;;37.33;10.50;;;15.50;39.50;;;;;;5028001;28;20839;-66
2022/06/01 04:44:17;;;;;;;33.93;10.53;;;15.60;39.80;;;;;;5027810;28;20490;-66
2022/06/01 04:46:46;;;;;;;34.70;11.17;;;15.80;39.30;;;;;;5026714;28;20498;-65
2022/06/01 04:49:12;;;;;;;33.20;10.40;;;15.80;38.70;;;;;;5027517;28;20486;-66
2022/06/01 04:51:40;;;;;;;35.80;11.13;;;15.80;38.50;;;;;;5027995;28;20471;-65
2022/06/01 04:54:07;;;;;;;38.97;11.90;;;15.80;38.30;;;;;;5027199;28;20900;-66
2022/06/01 04:56:35;;;;;;;33.50;10.57;;;15.70;38.80;;;;;;5025993;28;20491;-66
2022/06/01 04:59:01;;;;;;;35.70;11.50;;;15.70;38.40;;;;;;5027898;28;20490;-65
2022/06/01 05:01:29;;;;;;;33.50;9.97;;;15.80;38.70;;;;;;5026720;28;20463;-66
2022/06/01 05:03:57;;;;;;;34.47;10.63;;;16.00;38.90;;;;;;5028088;28;20506;-65
2022/06/01 05:06:24;;;;;;;30.53;7.73;;;17.10;38.20;;;;;;5025498;28;20889;-66
2022/06/01 05:08:51;;;;;;;32.37;8.80;;;17.90;34.80;;;;;;5027532;28;20475;-65
2022/06/01 05:11:19;;;;;;;34.07;10.20;;;18.00;32.70;;;;;;5027387;28;20931;-66
2022/06/01 05:13:46;;;;;;;30.73;7.40;;;17.90;32.80;;;;;;5027951;28;20466;-66
2022/06/01 05:16:13;;;;;;;31.67;7.73;;;18.00;32.20;;;;;;5026657;28;20466;-65
2022/06/01 05:18:40;;;;;;;32.00;7.93;;;18.00;31.90;;;;;;5026743;28;20486;-65
2022/06/01 05:21:08;;;;;;;30.30;7.83;;;17.90;31.90;;;;;;5027968;28;20455;-66
2022/06/01 05:23:34;;;;;;;30.40;7.67;;;17.80;32.30;;;;;;5031122;28;20470;-65
2022/06/01 05:26:02;;;;;;;32.77;7.97;;;17.80;32.30;;;;;;5031966;28;20458;-65
2022/06/01 05:28:31;;;;;;;31.53;7.50;;;17.80;32.50;;;;;;5030249;28;20485;-65
2022/06/01 05:30:59;;;;;;;31.50;7.00;;;18.60;32.10;;;;;;5031258;28;20490;-65
2022/06/01 05:33:26;;;;;;;29.97;6.70;;;19.40;30.90;;;;;;5031690;28;20813;-65
2022/06/01 05:35:52;;;;;;;29.67;6.40;;;20.30;27.70;;;;;;5031854;28;20459;-66
2022/06/01 05:38:21;;;;;;;30.50;7.10;;;20.20;26.40;;;;;;5029956;28;20493;-65
2022/06/01 05:40:47;;;;;;;31.43;7.50;;;20.20;26.40;;;;;;5031874;28;20466;-66
2022/06/01 05:43:17;;;;;;;33.27;7.43;;;20.40;26.00;;;;;;5024442;28;20470;-66
2022/06/01 05:45:45;;;;;;;30.37;7.57;;;20.70;25.30;;;;;;5028698;28;21106;-66
2022/06/01 05:48:14;;;;;;;30.83;6.83;;;20.80;24.20;;;;;;5025409;28;21215;-66
2022/06/01 05:50:42;;;;;;;30.10;6.90;;;21.30;24.80;;;;;;5031183;28;20959;-65
2022/06/01 05:53:09;;;;;;;31.10;7.10;;;21.70;22.20;;;;;;5030977;28;20486;-66
2022/06/01 05:55:38;;;;;;;34.97;7.70;;;21.80;21.00;;;;;;5030464;28;20462;-65
2022/06/01 05:58:13;;;;;;;30.00;7.13;;;21.60;20.90;;;;;;5030774;28;21068;-66
2022/06/01 06:00:40;;;;;;;30.57;6.60;;;22.00;22.80;;;;;;5023225;28;20466;-65
2022/06/01 06:03:07;;;;;;;28.93;6.37;;;24.20;19.60;;;;;;5025710;28;20838;-66
2022/06/01 06:08:21;;;;;;;31.30;6.53;;;29.20;11.20;;;;;;5009531;28;20608;-66
2022/06/01 06:10:50;;;;;;;28.20;5.67;;;29.70;7.90;;;;;;5028754;28;20991;-66
2022/06/01 06:13:17;;;;;;;28.10;5.60;;;29.70;7.10;;;;;;5030911;28;21031;-66
2022/06/01 06:15:44;;;;;;;27.10;5.00;;;30.40;7.40;;;;;;5030214;28;20466;-66
2022/06/01 06:18:15;;;;;;;27.70;5.37;;;32.30;5.50;;;;;;5031134;28;20478;-66
2022/06/01 06:21:00;;;;;;;27.93;4.93;;;33.90;2.60;;;;;;5028238;28;20478;-66
2022/06/01 06:23:26;;;;;;;27.17;5.03;;;35.50;1.00;;;;;;5030947;28;20442;-66
2022/06/01 06:25:54;;;;;;;25.03;4.50;;;36.50;1.00;;;;;;5030657;28;20468;-66
2022/06/01 06:28:21;;;;;;;25.20;4.77;;;37.50;1.00;;;;;;5031487;28;20590;-67
2022/06/01 06:30:48;;;;;;;25.37;4.70;;;38.20;1.00;;;;;;5028604;28;20862;-66
2022/06/01 06:33:15;;;;;;;25.07;4.60;;;38.50;1.00;;;;;;5030149;28;20478;-66
2022/06/01 06:35:41;;;;;;;25.50;4.87;;;38.20;1.00;;;;;;5030192;28;20459;-66
2022/06/01 06:38:08;;;;;;;25.30;4.73;;;36.70;1.00;;;;;;5030367;28;20482;-65
2022/06/01 06:40:35;;;;;;;24.50;3.90;;;34.70;1.00;;;;;;5028969;28;20462;-66
2022/06/01 06:43:03;;;;;;;25.47;4.33;;;34.80;1.00;;;;;;5030153;28;20459;-67
2022/06/01 06:45:30;;;;;;;24.83;4.63;;;35.50;1.00;;;;;;5030155;28;20466;-66
2022/06/01 06:47:57;;;;;;;25.27;4.03;;;35.50;1.00;;;;;;5030961;28;20486;-66
2022/06/01 06:50:24;;;;;;;26.77;4.60;;;37.00;1.00;;;;;;5029474;28;20459;-66
2022/06/01 06:52:50;;;;;;;24.87;4.30;;;38.60;1.00;;;;;;5030057;28;20483;-65
2022/06/01 06:55:17;;;;;;;26.47;3.83;;;39.90;1.00;;;;;;5030534;28;20455;-66
2022/06/01 06:57:44;;;;;;;23.43;3.80;;;40.80;1.00;;;;;;5030075;28;20491;-66
2022/06/01 07:00:14;;;;;;;24.07;4.20;;;41.30;1.00;;;;;;5029919;28;20470;-66
2022/06/01 07:02:41;;;;;;;25.03;3.73;;;41.80;1.00;;;;;;5028000;28;20471;-67
2022/06/01 07:05:09;;;;;;;25.27;3.87;;;42.40;1.00;;;;;;5030821;28;20474;-66
2022/06/01 07:07:35;;;;;;;24.77;4.00;;;43.10;1.00;;;;;;5030401;28;20483;-66
2022/06/01 07:10:03;;;;;;;23.60;4.47;;;43.70;1.00;;;;;;5030473;28;20459;-67
2022/06/01 07:12:29;;;;;;;23.90;4.13;;;44.30;1.00;;;;;;5028841;28;20478;-66
2022/06/01 07:14:56;;;;;;;23.50;3.60;;;44.80;1.00;;;;;;5029900;28;20463;-66
2022/06/01 07:17:25;;;;;;;23.60;3.67;;;45.50;1.00;;;;;;5029542;28;20509;-66
2022/06/01 07:19:55;;;;;;;22.70;3.07;;;45.20;1.00;;;;;;5030099;28;20471;-67
2022/06/01 07:22:22;;;;;;;22.90;3.87;;;45.80;1.00;;;;;;5027508;28;20538;-66
2022/06/01 07:24:49;;;;;;;23.00;3.30;;;46.20;1.00;;;;;;5029980;28;20459;-66
2022/06/01 07:27:16;;;;;;;21.83;3.30;;;45.80;1.00;;;;;;5028907;28;20854;-67
2022/06/01 07:29:42;;;;;;;22.07;3.07;;;46.10;1.00;;;;;;5030132;28;20463;-67
2022/06/01 07:32:10;;;;;;;21.37;3.10;;;46.70;1.00;;;;;;5010973;28;20475;-67
2022/06/01 07:34:38;;;;;;;21.10;3.13;;;47.50;1.00;;;;;;5010049;28;20460;-66
2022/06/01 07:45:14;;;;;;;20.57;2.70;;;49.20;1.00;;;;;;5008324;28;20468;-67
2022/06/01 07:47:41;;;;;;;21.27;2.80;;;49.50;1.00;;;;;;5009235;28;20475;-66
2022/06/01 07:50:10;;;;;;;21.87;2.80;;;49.80;1.00;;;;;;5009469;28;20456;-66
2022/06/01 07:52:37;;;;;;;20.57;2.57;;;50.20;1.00;;;;;;5009760;28;20507;-67
2022/06/01 07:55:05;;;;;;;20.30;2.77;;;50.60;1.00;;;;;;5007979;28;20464;-67
2022/06/01 07:57:32;;;;;;;20.10;2.67;;;51.20;1.00;;;;;;5009130;28;20484;-67
2022/06/01 07:59:59;;;;;;;21.93;2.80;;;51.80;1.00;;;;;;5009420;28;20507;-67
2022/06/01 08:02:26;;;;;;;21.57;2.87;;;50.50;1.00;;;;;;5008456;28;20467;-67
2022/06/01 08:04:53;;;;;;;20.70;2.70;;;50.60;1.00;;;;;;5006856;28;20846;-64
2022/06/01 08:07:21;;;;;;;19.77;3.00;;;50.80;1.00;;;;;;5009238;28;20483;-67
2022/06/01 08:09:48;;;;;;;21.23;2.90;;;50.20;1.00;;;;;;5008576;28;20462;-67
2022/06/01 08:14:59;;;;;;;21.97;3.10;;;49.50;1.00;;;;;;5007466;28;21086;-67
2022/06/01 08:17:26;;;;;;;21.90;2.70;;;48.50;1.00;;;;;;5009188;28;20479;-66
2022/06/01 08:19:53;;;;;;;20.73;2.50;;;48.90;1.00;;;;;;5009444;28;20471;-67
2022/06/01 08:22:21;;;;;;;20.67;2.60;;;48.30;1.00;;;;;;5008815;28;20456;-67
2022/06/01 08:24:48;;;;;;;22.80;2.90;;;46.90;1.00;;;;;;5007558;28;20468;-67
2022/06/01 08:27:14;;;;;;;22.27;2.93;;;47.70;1.00;;;;;;5008385;28;20486;-67
2022/06/01 08:29:41;;;;;;;21.80;2.93;;;48.40;1.00;;;;;;5008453;28;20957;-67
2022/06/01 08:32:09;;;;;;;20.97;2.57;;;48.30;1.00;;;;;;5008166;28;20514;-67
2022/06/01 08:34:36;;;;;;;21.60;2.90;;;47.90;1.00;;;;;;5007661;28;20481;-66
2022/06/01 08:37:03;;;;;;;22.10;2.70;;;47.10;1.00;;;;;;5008507;28;20459;-67
2022/06/01 08:39:31;;;;;;;21.53;2.50;;;47.60;1.00;;;;;;5009492;28;20463;-67
2022/06/01 08:42:01;;;;;;;21.03;2.23;;;48.60;1.00;;;;;;5008360;28;20460;-67
2022/06/01 08:44:32;;;;;;;20.77;2.53;;;49.80;1.00;;;;;;5008611;28;20739;-67
2022/06/01 08:47:05;;;;;;;20.80;2.70;;;50.30;1.00;;;;;;5007511;28;20464;-67
2022/06/01 08:49:34;;;;;;;19.70;2.23;;;49.80;1.00;;;;;;5008962;28;21045;-67
2022/06/01 08:52:02;;;;;;;22.17;2.70;;;47.90;1.00;;;;;;5008071;28;20464;-67
2022/06/01 08:54:29;;;;;;;22.63;2.93;;;45.50;1.00;;;;;;5008378;28;20460;-67
2022/06/01 08:57:02;;;;;;;22.07;2.80;;;42.70;1.00;;;;;;5006541;28;20471;-67
2022/06/01 08:59:40;;;;;;;22.70;2.70;;;41.80;1.00;;;;;;5008329;28;20945;-66
2022/06/01 09:02:21;;;;;;;22.60;2.73;;;41.60;1.00;;;;;;5007891;28;20889;-67
2022/06/01 09:04:52;;;;;;;22.93;3.20;;;41.60;1.00;;;;;;5008447;28;20448;-67
2022/06/01 09:07:25;;;;;;;21.77;2.20;;;40.60;1.00;;;;;;5007056;28;20853;-66
2022/06/01 09:10:06;;;;;;;23.60;2.57;;;39.90;1.00;;;;;;5008716;28;20459;-66
2022/06/01 09:12:36;;;;;;;22.60;3.00;;;41.70;1.00;;;;;;5008098;28;20499;-66
2022/06/01 09:15:14;;;;;;;22.53;3.10;;;43.50;1.00;;;;;;5008267;28;20466;-66
2022/06/01 09:17:43;;;;;;;23.07;2.93;;;44.50;1.00;;;;;;5006260;28;20494;-66
2022/06/01 09:22:56;;;;;;;22.63;2.93;;;44.30;1.00;;;;;;5007427;28;20435;-66
2022/06/01 09:25:32;;;;;;;22.60;2.40;;;43.40;1.00;;;;;;5008456;28;20467;-67
2022/06/01 09:28:05;;;;;;;21.77;2.23;;;44.00;1.00;;;;;;5005789;28;20515;-66
2022/06/01 09:30:37;;;;;;;23.03;2.70;;;43.80;1.00;;;;;;5007667;28;20471;-66
2022/06/01 09:33:23;;;;;;;22.77;2.73;;;43.10;1.00;;;;;;5007351;28;20624;-66
2022/06/01 09:36:01;;;;;;;23.00;3.03;;;41.60;1.00;;;;;;5008216;28;20460;-66
2022/06/01 09:38:37;;;;;;;24.97;3.07;;;39.30;1.00;;;;;;5006116;28;21010;-66
2022/06/01 09:41:06;;;;;;;23.70;2.60;;;37.50;1.00;;;;;;5008341;28;20671;-66
2022/06/01 09:43:34;;;;;;;25.00;2.60;;;36.40;1.00;;;;;;5007801;28;20478;-66
2022/06/01 09:46:01;;;;;;;26.17;3.10;;;35.40;1.00;;;;;;5008573;28;20459;-66
2022/06/01 09:48:30;;;;;;;24.70;2.53;;;34.60;1.00;;;;;;5006356;28;20487;-66
2022/06/01 09:51:06;;;;;;;24.30;2.70;;;34.20;1.00;;;;;;5008052;28;20459;-66
2022/06/01 09:53:39;;;;;;;26.20;3.10;;;33.60;1.00;;;;;;5007954;28;20467;-66
2022/06/01 09:56:06;;;;;;;26.27;3.03;;;33.30;1.00;;;;;;5008235;28;20451;-66
2022/06/01 10:06:54;;;;;;;25.90;3.30;;;31.60;1.00;;;;;;5007867;28;20822;-66
2022/06/01 10:09:25;;;;;;;28.63;2.93;;;31.30;1.00;;;;;;5008966;28;20475;-66
2022/06/01 10:11:54;;;;;;;26.10;2.60;;;31.00;1.00;;;;;;5011716;28;20466;-66
2022/06/01 10:14:26;;;;;;;27.93;3.27;;;30.50;1.00;;;;;;5011314;28;20487;-66
2022/06/01 10:17:16;;;;;;;24.90;3.03;;;30.10;1.00;;;;;;5011237;28;20448;-66
2022/06/01 10:19:47;;;;;;;25.83;3.57;;;29.80;1.00;;;;;;5009857;28;20471;-66
2022/06/01 10:22:24;;;;;;;26.20;3.40;;;29.50;1.00;;;;;;5010934;28;20482;-66
2022/06/01 10:24:55;;;;;;;25.87;3.50;;;29.20;1.00;;;;;;5011027;28;20450;-66
2022/06/01 10:27:30;;;;;;;25.17;3.20;;;29.10;1.00;;;;;;5010577;28;20844;-65
2022/06/01 10:30:10;;;;;;;24.73;2.97;;;28.90;1.00;;;;;;5009103;28;20459;-65
2022/06/01 10:32:47;;;;;;;25.10;3.00;;;28.80;1.00;;;;;;5030756;28;20438;-65
2022/06/01 10:35:31;;;;;;;25.90;3.17;;;28.70;1.00;;;;;;5030327;28;20462;-66
2022/06/01 10:38:04;;;;;;;26.53;3.30;;;28.40;1.00;;;;;;5030490;28;20483;-65
2022/06/01 10:40:39;;;;;;;25.00;2.80;;;28.20;1.40;;;;;;5028375;28;20486;-66
2022/06/01 10:43:18;;;;;;;30.17;3.60;;;27.90;1.30;;;;;;5030704;28;20990;-65
2022/06/01 10:45:50;;;;;;;25.93;3.67;;;27.70;1.90;;;;;;5030541;28;20450;-65
2022/06/01 10:48:24;;;;;;;25.00;3.07;;;27.60;2.30;;;;;;5030781;28;20514;-65
2022/06/01 10:50:56;;;;;;;27.77;3.20;;;27.50;2.00;;;;;;5028882;28;20482;-65
2022/06/01 10:53:33;;;;;;;25.90;3.57;;;27.40;2.40;;;;;;5029264;28;20482;-65
2022/06/01 10:56:00;;;;;;;25.80;3.90;;;27.30;2.00;;;;;;5030442;28;20465;-66
2022/06/01 10:58:28;;;;;;;25.40;3.47;;;27.20;2.20;;;;;;5030350;28;20483;-65
2022/06/01 11:01:07;;;;;;;26.20;3.90;;;27.30;3.00;;;;;;5023629;28;20495;-66
2022/06/01 11:03:52;;;;;;;25.60;3.03;;;27.20;3.40;;;;;;5010508;28;20455;-66
2022/06/01 11:06:30;;;;;;;25.80;3.20;;;27.20;2.90;;;;;;4990267;28;20456;-66
2022/06/01 11:09:06;;;;;;;26.20;3.80;;;26.90;2.70;;;;;;4990682;28;20473;-66
2022/06/01 11:11:43;;;;;;;25.23;3.63;;;26.80;2.60;;;;;;4990548;28;20769;-66
2022/06/01 11:14:37;;;;;;;25.17;3.67;;;26.80;2.70;;;;;;4990768;28;20484;-66
2022/06/01 11:17:14;;;;;;;25.50;3.43;;;26.70;3.60;;;;;;5009178;28;20975;-65
2022/06/01 11:19:57;;;;;;;26.47;3.20;;;26.70;3.50;;;;;;5010195;28;20467;-66
2022/06/01 11:22:39;;;;;;;25.63;3.10;;;26.80;3.20;;;;;;5009893;28;20471;-65
2022/06/01 11:25:16;;;;;;;26.30;3.00;;;26.80;2.80;;;;;;5008160;28;20464;-66
2022/06/01 11:27:59;;;;;;;27.07;3.50;;;26.90;2.10;;;;;;5009193;28;20483;-66
2022/06/01 11:30:28;;;;;;;25.57;3.30;;;27.00;3.30;;;;;;5009619;28;20444;-66
2022/06/01 11:33:01;;;;;;;25.27;2.60;;;26.90;2.70;;;;;;5009454;28;20456;-66
2022/06/01 11:35:35;;;;;;;25.87;3.57;;;27.00;3.10;;;;;;5008614;28;20468;-66
2022/06/01 11:38:09;;;;;;;26.80;3.03;;;26.90;2.20;;;;;;5009747;28;20480;-66
2022/06/01 11:40:43;;;;;;;25.40;3.23;;;26.90;2.00;;;;;;5009485;28;20956;-66
2022/06/01 11:43:18;;;;;;;26.83;3.37;;;26.90;2.70;;;;;;5009278;28;20840;-65
2022/06/01 11:45:49;;;;;;;28.90;3.57;;;27.00;2.60;;;;;;5007915;28;20987;-66
2022/06/01 11:48:23;;;;;;;24.73;2.90;;;26.90;1.60;;;;;;5009272;28;20487;-66
2022/06/01 11:50:58;;;;;;;25.43;3.40;;;26.90;2.40;;;;;;5009477;28;20446;-66
2022/06/01 11:53:33;;;;;;;25.93;3.37;;;27.00;3.40;;;;;;5009465;28;20838;-66
2022/06/01 11:56:23;;;;;;;27.00;3.40;;;27.10;2.20;;;;;;5007591;28;20958;-66
2022/06/01 11:59:03;;;;;;;25.80;2.90;;;27.10;2.20;;;;;;5008708;28;20554;-66
2022/06/01 12:01:45;;;;;;;25.43;3.37;;;27.10;2.10;;;;;;5008567;28;20506;-66
2022/06/01 12:04:19;;;;;;;27.13;3.07;;;27.00;1.80;;;;;;5009584;28;20504;-66
2022/06/01 12:06:52;;;;;;;26.77;3.03;;;26.90;2.20;;;;;;5007900;28;20459;-65
2022/06/01 12:09:35;;;;;;;25.33;3.20;;;26.90;2.50;;;;;;5008887;28;20926;-66
2022/06/01 12:12:02;;;;;;;25.90;3.13;;;26.80;2.50;;;;;;5009727;28;20459;-66
2022/06/01 12:14:33;;;;;;;25.40;2.80;;;26.70;2.20;;;;;;5008902;28;20492;-66
2022/06/01 12:17:28;;;;;;;27.80;3.33;;;26.50;2.10;;;;;;5008062;28;20474;-66
2022/06/01 12:20:33;;;;;;;27.33;3.70;;;26.30;2.80;;;;;;5009137;28;20987;-66
2022/06/01 12:29:33;;;;;;;26.70;2.90;;;26.10;4.40;;;;;;5006970;28;20886;-66
2022/06/01 12:32:15;;;;;;;26.00;3.00;;;26.00;4.10;;;;;;5007735;28;20467;-66
2022/06/01 12:34:49;;;;;;;25.40;2.80;;;25.90;4.50;;;;;;5009235;28;21039;-66
2022/06/01 12:37:21;;;;;;;28.57;3.43;;;25.90;4.50;;;;;;5008892;28;20483;-66
2022/06/01 12:39:54;;;;;;;25.83;3.10;;;26.00;4.90;;;;;;5007835;28;20471;-65
2022/06/01 12:42:26;;;;;;;27.57;3.60;;;26.00;4.70;;;;;;5003375;28;20448;-64
2022/06/01 12:44:55;;;;;;;26.40;3.37;;;25.90;4.20;;;;;;5008939;28;20531;-65
2022/06/01 12:47:23;;;;;;;26.90;3.60;;;25.70;4.80;;;;;;5008698;28;20480;-64
2022/06/01 12:49:50;;;;;;;27.47;3.87;;;25.60;5.60;;;;;;5007628;28;20475;-65
2022/06/01 12:52:21;;;;;;;28.23;4.00;;;25.50;6.00;;;;;;5008328;28;20953;-64
2022/06/01 12:54:57;;;;;;;25.47;3.10;;;25.40;5.70;;;;;;5008703;28;20488;-64
2022/06/01 12:57:26;;;;;;;25.60;3.17;;;25.20;6.00;;;;;;5007890;28;20514;-64
2022/06/01 12:59:58;;;;;;;26.30;3.50;;;25.10;6.30;;;;;;5006507;28;20475;-64
2022/06/01 13:02:27;;;;;;;27.60;3.77;;;24.90;6.80;;;;;;5007766;28;21024;-65
2022/06/01 13:04:55;;;;;;;25.40;3.73;;;24.70;7.00;;;;;;5008235;28;20460;-64
2022/06/01 13:07:28;;;;;;;26.43;3.67;;;24.60;7.60;;;;;;5008856;28;20495;-64
2022/06/01 13:10:02;;;;;;;26.40;3.70;;;24.50;8.60;;;;;;5006070;28;20471;-64
2022/06/01 13:12:32;;;;;;;26.93;3.57;;;24.40;8.20;;;;;;5008376;28;20486;-65
2022/06/01 13:15:10;;;;;;;25.33;3.60;;;24.30;8.30;;;;;;5008627;28;20502;-64
2022/06/01 13:17:50;;;;;;;26.37;4.07;;;24.20;8.90;;;;;;5007984;28;20483;-65
2022/06/01 13:20:18;;;;;;;24.80;3.20;;;24.10;9.40;;;;;;5006485;28;20465;-65
2022/06/01 13:22:50;;;;;;;25.50;3.67;;;24.00;9.50;;;;;;5006078;28;20471;-64
2022/06/01 13:25:25;;;;;;;25.00;3.17;;;24.00;9.40;;;;;;5007959;28;20553;-65
2022/06/01 13:27:53;;;;;;;29.50;3.00;;;23.90;9.70;;;;;;5008409;28;20484;-64
2022/06/01 13:30:20;;;;;;;26.10;2.40;;;23.80;7.00;;;;;;5007327;28;20456;-65
2022/06/01 13:32:51;;;;;;;26.33;2.33;;;23.60;4.40;;;;;;5006131;28;20491;-64
2022/06/01 13:35:32;;;;;;;26.17;2.33;;;23.50;3.60;;;;;;5008323;28;20483;-64
2022/06/01 13:37:59;;;;;;;29.37;2.60;;;23.40;3.70;;;;;;5008148;28;20789;-64